sensor_id;sensor_type;location;lat;lon;timestamp;temperature;humidity
5848;DHT22;8756;49.29324300;8.70599800;2023-04-15T00:00:42;6.00;99.90
5848;DHT22;8756;49.29324300;8.70599800;2023-04-15T00:03:07;6.00;99.90
5848;DHT22;8756;49.29324300;8.70599800;2023-04-15T00:05:33;6.00;99.90
5848;DHT22;8756;49.29324300;8.70599800;2023-04-15T00:07:59;5.90;99.90
5848;DHT22;8756;49.29324300;8.70599800;2023-04-15T00:10:26;5.90;99.90
5848;DHT22;8756;49.29324300;8.70599800;2023-04-15T00:12:52;6.00;99.90
5848;DHT22;8756;49.29324300;8.70599800;2023-04-15T00:15:18;5.90;99.90
5848;DHT22;8756;49.29324300;8.70599800;2023-04-15T00:17:44;5.90;99.90
5848;DHT22;8756;49.29324300;8.70599800;2023-04-15T00:20:10;5.90;99.90
5848;DHT22;8756;49.29324300;8.70599800;2023-04-15T00:22:36;5.80;99.90
5848;DHT22;8756;49.29324300;8.70599800;2023-04-15T00:25:02;5.80;99.90
5848;DHT22;8756;49.29324300;8.70599800;2023-04-15T00:27:28;5.80;99.90
5848;DHT22;8756;49.29324300;8.70599800;2023-04-15T00:29:54;5.80;99.90
5848;DHT22;8756;49.29324300;8.70599800;2023-04-15T00:32:20;5.70;99.90
5848;DHT22;8756;49.29324300;8.70599800;2023-04-15T00:34:46;5.70;99.90
5848;DHT22;8756;49.29324300;8.70599800;2023-04-15T00:37:12;5.70;99.90
5848;DHT22;8756;49.29324300;8.70599800;2023-04-15T00:39:37;5.60;99.90
5848;DHT22;8756;49.29324300;8.70599800;2023-04-15T00:42:03;5.60;99.90
5848;DHT22;8756;49.29324300;8.70599800;2023-04-15T00:44:30;5.60;99.90
5848;DHT22;8756;49.29324300;8.70599800;2023-04-15T00:46:56;5.60;99.90
5848;DHT22;8756;49.29324300;8.70599800;2023-04-15T00:49:22;5.60;99.90
5848;DHT22;8756;49.29324300;8.70599800;2023-04-15T00:51:49;5.50;99.90
5848;DHT22;8756;49.29324300;8.70599800;2023-04-15T00:54:14;5.50;99.90
5848;DHT22;8756;49.29324300;8.70599800;2023-04-15T00:56:41;5.50;99.90
5848;DHT22;8756;49.29324300;8.70599800;2023-04-15T00:59:07;5.50;99.90
5848;DHT22;8756;49.29324300;8.70599800;2023-04-15T01:01:36;5.50;99.90
5848;DHT22;8756;49.29324300;8.70599800;2023-04-15T01:04:03;5.40;99.90
5848;DHT22;8756;49.29324300;8.70599800;2023-04-15T01:06:30;5.40;99.90
5848;DHT22;8756;49.29324300;8.70599800;2023-04-15T01:08:57;5.40;99.90
5848;DHT22;8756;49.29324300;8.70599800;2023-04-15T01:11:23;5.40;99.90
5848;DHT22;8756;49.29324300;8.70599800;2023-04-15T01:13:50;5.40;99.90
5848;DHT22;8756;49.29324300;8.70599800;2023-04-15T01:16:17;5.30;99.90
5848;DHT22;8756;49.29324300;8.70599800;2023-04-15T01:18:43;5.30;99.90
5848;DHT22;8756;49.29324300;8.70599800;2023-04-15T01:21:10;5.30;99.90
5848;DHT22;8756;49.29324300;8.70599800;2023-04-15T01:23:36;5.30;99.90
5848;DHT22;8756;49.29324300;8.70599800;2023-04-15T01:26:03;5.30;99.90
5848;DHT22;8756;49.29324300;8.70599800;2023-04-15T01:28:31;5.20;99.90
5848;DHT22;8756;49.29324300;8.70599800;2023-04-15T01:31:13;5.20;99.90
5848;DHT22;8756;49.29324300;8.70599800;2023-04-15T01:33:40;5.20;99.90
5848;DHT22;8756;49.29324300;8.70599800;2023-04-15T01:36:07;5.20;99.90
5848;DHT22;8756;49.29324300;8.70599800;2023-04-15T01:38:34;5.10;99.90
5848;DHT22;8756;49.29324300;8.70599800;2023-04-15T01:41:01;5.10;99.90
5848;DHT22;8756;49.29324300;8.70599800;2023-04-15T01:43:29;5.10;99.90
5848;DHT22;8756;49.29324300;8.70599800;2023-04-15T01:45:55;5.00;99.90
5848;DHT22;8756;49.29324300;8.70599800;2023-04-15T01:48:21;5.00;99.90
5848;DHT22;8756;49.29324300;8.70599800;2023-04-15T01:50:49;5.00;99.90
5848;DHT22;8756;49.29324300;8.70599800;2023-04-15T01:53:16;4.90;99.90
5848;DHT22;8756;49.29324300;8.70599800;2023-04-15T01:55:41;4.90;99.90
5848;DHT22;8756;49.29324300;8.70599800;2023-04-15T01:58:07;4.80;99.90
5848;DHT22;8756;49.29324300;8.70599800;2023-04-15T02:00:33;4.80;99.90
5848;DHT22;8756;49.29324300;8.70599800;2023-04-15T02:02:58;4.80;99.90
5848;DHT22;8756;49.29324300;8.70599800;2023-04-15T02:05:24;4.80;99.90
5848;DHT22;8756;49.29324300;8.70599800;2023-04-15T02:07:50;4.80;99.90
5848;DHT22;8756;49.29324300;8.70599800;2023-04-15T02:10:16;4.80;99.90
5848;DHT22;8756;49.29324300;8.70599800;2023-04-15T02:12:42;4.80;99.90
5848;DHT22;8756;49.29324300;8.70599800;2023-04-15T02:15:08;4.70;99.90
5848;DHT22;8756;49.29324300;8.70599800;2023-04-15T02:17:35;4.60;99.90
5848;DHT22;8756;49.29324300;8.70599800;2023-04-15T02:20:02;4.60;99.90
5848;DHT22;8756;49.29324300;8.70599800;2023-04-15T02:22:30;4.60;99.90
5848;DHT22;8756;49.29324300;8.70599800;2023-04-15T02:24:56;4.50;99.90
5848;DHT22;8756;49.29324300;8.70599800;2023-04-15T02:27:21;4.50;99.90
5848;DHT22;8756;49.29324300;8.70599800;2023-04-15T02:29:47;4.50;99.90
5848;DHT22;8756;49.29324300;8.70599800;2023-04-15T02:32:15;4.40;99.90
5848;DHT22;8756;49.29324300;8.70599800;2023-04-15T02:34:41;4.40;99.90
5848;DHT22;8756;49.29324300;8.70599800;2023-04-15T02:37:11;4.40;99.90
5848;DHT22;8756;49.29324300;8.70599800;2023-04-15T02:39:37;4.40;99.90
5848;DHT22;8756;49.29324300;8.70599800;2023-04-15T02:42:03;4.30;99.90
5848;DHT22;8756;49.29324300;8.70599800;2023-04-15T02:44:31;4.30;99.90
5848;DHT22;8756;49.29324300;8.70599800;2023-04-15T02:46:58;4.20;99.90
5848;DHT22;8756;49.29324300;8.70599800;2023-04-15T02:49:24;4.20;99.90
5848;DHT22;8756;49.29324300;8.70599800;2023-04-15T02:51:50;4.20;99.90
5848;DHT22;8756;49.29324300;8.70599800;2023-04-15T02:54:20;4.30;99.90
5848;DHT22;8756;49.29324300;8.70599800;2023-04-15T02:56:47;4.30;99.90
5848;DHT22;8756;49.29324300;8.70599800;2023-04-15T02:59:13;4.30;99.90
5848;DHT22;8756;49.29324300;8.70599800;2023-04-15T03:01:39;4.30;99.90
5848;DHT22;8756;49.29324300;8.70599800;2023-04-15T03:04:04;4.30;99.90
5848;DHT22;8756;49.29324300;8.70599800;2023-04-15T03:06:32;4.20;99.90
5848;DHT22;8756;49.29324300;8.70599800;2023-04-15T03:08:57;4.20;99.90
5848;DHT22;8756;49.29324300;8.70599800;2023-04-15T03:11:24;4.10;99.90
5848;DHT22;8756;49.29324300;8.70599800;2023-04-15T03:13:51;4.10;99.90
5848;DHT22;8756;49.29324300;8.70599800;2023-04-15T03:16:17;4.10;99.90
5848;DHT22;8756;49.29324300;8.70599800;2023-04-15T03:18:42;4.10;99.90
5848;DHT22;8756;49.29324300;8.70599800;2023-04-15T03:21:08;4.10;99.90
5848;DHT22;8756;49.29324300;8.70599800;2023-04-15T03:23:34;4.10;99.90
5848;DHT22;8756;49.29324300;8.70599800;2023-04-15T03:26:03;4.10;99.90
5848;DHT22;8756;49.29324300;8.70599800;2023-04-15T03:28:30;4.10;99.90
5848;DHT22;8756;49.29324300;8.70599800;2023-04-15T03:30:57;4.10;99.90
5848;DHT22;8756;49.29324300;8.70599800;2023-04-15T03:33:23;4.10;99.90
5848;DHT22;8756;49.29324300;8.70599800;2023-04-15T03:35:49;4.10;99.90
5848;DHT22;8756;49.29324300;8.70599800;2023-04-15T03:38:16;4.10;99.90
5848;DHT22;8756;49.29324300;8.70599800;2023-04-15T03:40:42;4.00;99.90
5848;DHT22;8756;49.29324300;8.70599800;2023-04-15T03:43:08;4.00;99.90
5848;DHT22;8756;49.29324300;8.70599800;2023-04-15T03:45:34;4.00;99.90
5848;DHT22;8756;49.29324300;8.70599800;2023-04-15T03:48:00;3.90;99.90
5848;DHT22;8756;49.29324300;8.70599800;2023-04-15T03:50:25;3.90;99.90
5848;DHT22;8756;49.29324300;8.70599800;2023-04-15T03:52:52;3.90;99.90
5848;DHT22;8756;49.29324300;8.70599800;2023-04-15T03:55:18;3.90;99.90
5848;DHT22;8756;49.29324300;8.70599800;2023-04-15T03:57:44;3.90;99.90
5848;DHT22;8756;49.29324300;8.70599800;2023-04-15T04:00:10;3.90;99.90
5848;DHT22;8756;49.29324300;8.70599800;2023-04-15T04:02:36;3.90;99.90
5848;DHT22;8756;49.29324300;8.70599800;2023-04-15T04:05:02;3.90;99.90
5848;DHT22;8756;49.29324300;8.70599800;2023-04-15T04:07:28;3.90;99.90
5848;DHT22;8756;49.29324300;8.70599800;2023-04-15T04:09:55;3.90;99.90
5848;DHT22;8756;49.29324300;8.70599800;2023-04-15T04:12:21;3.90;99.90
5848;DHT22;8756;49.29324300;8.70599800;2023-04-15T04:14:47;3.90;99.90
5848;DHT22;8756;49.29324300;8.70599800;2023-04-15T04:17:13;3.90;99.90
5848;DHT22;8756;49.29324300;8.70599800;2023-04-15T04:19:38;3.90;99.90
5848;DHT22;8756;49.29324300;8.70599800;2023-04-15T04:22:04;3.90;99.90
5848;DHT22;8756;49.29324300;8.70599800;2023-04-15T04:24:30;3.80;99.90
5848;DHT22;8756;49.29324300;8.70599800;2023-04-15T04:26:56;3.80;99.90
5848;DHT22;8756;49.29324300;8.70599800;2023-04-15T04:29:22;3.80;99.90
5848;DHT22;8756;49.29324300;8.70599800;2023-04-15T04:31:48;3.80;99.90
5848;DHT22;8756;49.29324300;8.70599800;2023-04-15T04:34:14;3.80;99.90
5848;DHT22;8756;49.29324300;8.70599800;2023-04-15T04:36:40;3.80;99.90
5848;DHT22;8756;49.29324300;8.70599800;2023-04-15T04:39:06;3.90;99.90
5848;DHT22;8756;49.29324300;8.70599800;2023-04-15T04:41:32;3.90;99.90
5848;DHT22;8756;49.29324300;8.70599800;2023-04-15T04:43:58;3.90;99.90
5848;DHT22;8756;49.29324300;8.70599800;2023-04-15T04:46:23;3.80;99.90
5848;DHT22;8756;49.29324300;8.70599800;2023-04-15T04:48:49;3.80;99.90
5848;DHT22;8756;49.29324300;8.70599800;2023-04-15T04:51:15;3.80;99.90
5848;DHT22;8756;49.29324300;8.70599800;2023-04-15T04:53:41;3.90;99.90
5848;DHT22;8756;49.29324300;8.70599800;2023-04-15T04:56:07;4.00;99.90
5848;DHT22;8756;49.29324300;8.70599800;2023-04-15T04:58:33;4.00;99.90
5848;DHT22;8756;49.29324300;8.70599800;2023-04-15T05:00:59;4.00;99.90
5848;DHT22;8756;49.29324300;8.70599800;2023-04-15T05:03:25;4.00;99.90
5848;DHT22;8756;49.29324300;8.70599800;2023-04-15T05:05:50;3.90;99.90
5848;DHT22;8756;49.29324300;8.70599800;2023-04-15T05:08:16;4.00;99.90
5848;DHT22;8756;49.29324300;8.70599800;2023-04-15T05:10:41;4.00;99.90
5848;DHT22;8756;49.29324300;8.70599800;2023-04-15T05:13:07;4.00;99.90
5848;DHT22;8756;49.29324300;8.70599800;2023-04-15T05:15:33;4.00;99.90
5848;DHT22;8756;49.29324300;8.70599800;2023-04-15T05:18:01;4.10;99.90
5848;DHT22;8756;49.29324300;8.70599800;2023-04-15T05:20:27;4.10;99.90
5848;DHT22;8756;49.29324300;8.70599800;2023-04-15T05:22:53;4.00;99.90
5848;DHT22;8756;49.29324300;8.70599800;2023-04-15T05:25:19;4.00;99.90
5848;DHT22;8756;49.29324300;8.70599800;2023-04-15T05:27:45;4.00;99.90
5848;DHT22;8756;49.29324300;8.70599800;2023-04-15T05:30:11;4.00;99.90
5848;DHT22;8756;49.29324300;8.70599800;2023-04-15T05:32:37;4.00;99.90
5848;DHT22;8756;49.29324300;8.70599800;2023-04-15T05:35:03;4.00;99.90
5848;DHT22;8756;49.29324300;8.70599800;2023-04-15T05:37:28;4.00;99.90
5848;DHT22;8756;49.29324300;8.70599800;2023-04-15T05:39:54;4.00;99.90
5848;DHT22;8756;49.29324300;8.70599800;2023-04-15T05:42:21;4.00;99.90
5848;DHT22;8756;49.29324300;8.70599800;2023-04-15T05:44:46;4.10;99.90
5848;DHT22;8756;49.29324300;8.70599800;2023-04-15T05:47:12;4.10;99.90
5848;DHT22;8756;49.29324300;8.70599800;2023-04-15T05:49:37;4.20;99.90
5848;DHT22;8756;49.29324300;8.70599800;2023-04-15T05:52:03;4.20;99.90
5848;DHT22;8756;49.29324300;8.70599800;2023-04-15T05:54:29;4.30;99.90
5848;DHT22;8756;49.29324300;8.70599800;2023-04-15T05:56:55;4.30;99.90
5848;DHT22;8756;49.29324300;8.70599800;2023-04-15T05:59:22;4.40;99.90
5848;DHT22;8756;49.29324300;8.70599800;2023-04-15T06:01:47;4.50;99.90
5848;DHT22;8756;49.29324300;8.70599800;2023-04-15T06:04:14;4.50;99.90
5848;DHT22;8756;49.29324300;8.70599800;2023-04-15T06:06:39;4.60;99.90
5848;DHT22;8756;49.29324300;8.70599800;2023-04-15T06:09:05;4.70;99.90
5848;DHT22;8756;49.29324300;8.70599800;2023-04-15T06:11:31;4.80;99.90
5848;DHT22;8756;49.29324300;8.70599800;2023-04-15T06:13:56;4.90;99.90
5848;DHT22;8756;49.29324300;8.70599800;2023-04-15T06:16:22;4.90;99.90
5848;DHT22;8756;49.29324300;8.70599800;2023-04-15T06:18:48;5.00;99.90
5848;DHT22;8756;49.29324300;8.70599800;2023-04-15T06:21:14;5.00;99.90
5848;DHT22;8756;49.29324300;8.70599800;2023-04-15T06:23:40;5.10;99.90
5848;DHT22;8756;49.29324300;8.70599800;2023-04-15T06:26:06;5.10;99.90
5848;DHT22;8756;49.29324300;8.70599800;2023-04-15T06:28:32;5.20;99.90
5848;DHT22;8756;49.29324300;8.70599800;2023-04-15T06:30:58;5.30;99.90
5848;DHT22;8756;49.29324300;8.70599800;2023-04-15T06:33:23;5.30;99.90
5848;DHT22;8756;49.29324300;8.70599800;2023-04-15T06:35:49;5.40;99.90
5848;DHT22;8756;49.29324300;8.70599800;2023-04-15T06:38:15;5.60;99.90
5848;DHT22;8756;49.29324300;8.70599800;2023-04-15T06:40:41;5.70;99.90
5848;DHT22;8756;49.29324300;8.70599800;2023-04-15T06:43:06;5.80;99.90
5848;DHT22;8756;49.29324300;8.70599800;2023-04-15T06:45:32;5.90;99.90
5848;DHT22;8756;49.29324300;8.70599800;2023-04-15T06:47:58;5.90;99.90
5848;DHT22;8756;49.29324300;8.70599800;2023-04-15T06:50:23;6.00;99.90
5848;DHT22;8756;49.29324300;8.70599800;2023-04-15T06:52:49;6.10;99.90
5848;DHT22;8756;49.29324300;8.70599800;2023-04-15T06:55:15;6.20;99.90
5848;DHT22;8756;49.29324300;8.70599800;2023-04-15T06:57:40;6.40;99.90
5848;DHT22;8756;49.29324300;8.70599800;2023-04-15T07:00:07;6.50;99.90
5848;DHT22;8756;49.29324300;8.70599800;2023-04-15T07:02:35;6.60;99.90
5848;DHT22;8756;49.29324300;8.70599800;2023-04-15T07:05:01;6.70;99.90
5848;DHT22;8756;49.29324300;8.70599800;2023-04-15T07:07:27;6.80;99.90
5848;DHT22;8756;49.29324300;8.70599800;2023-04-15T07:09:53;7.00;99.90
5848;DHT22;8756;49.29324300;8.70599800;2023-04-15T07:12:19;7.20;99.90
5848;DHT22;8756;49.29324300;8.70599800;2023-04-15T07:14:44;7.30;99.90
5848;DHT22;8756;49.29324300;8.70599800;2023-04-15T07:17:10;7.40;99.90
5848;DHT22;8756;49.29324300;8.70599800;2023-04-15T07:19:36;7.40;99.90
5848;DHT22;8756;49.29324300;8.70599800;2023-04-15T07:22:02;7.40;99.90
5848;DHT22;8756;49.29324300;8.70599800;2023-04-15T07:24:28;7.40;99.90
5848;DHT22;8756;49.29324300;8.70599800;2023-04-15T07:26:54;7.40;99.90
5848;DHT22;8756;49.29324300;8.70599800;2023-04-15T07:29:22;7.40;99.90
5848;DHT22;8756;49.29324300;8.70599800;2023-04-15T07:31:47;7.50;99.90
5848;DHT22;8756;49.29324300;8.70599800;2023-04-15T07:34:13;7.50;99.90
5848;DHT22;8756;49.29324300;8.70599800;2023-04-15T07:36:39;7.60;99.90
5848;DHT22;8756;49.29324300;8.70599800;2023-04-15T07:39:05;7.60;99.90
5848;DHT22;8756;49.29324300;8.70599800;2023-04-15T07:41:30;7.60;99.90
5848;DHT22;8756;49.29324300;8.70599800;2023-04-15T07:43:56;7.60;99.90
5848;DHT22;8756;49.29324300;8.70599800;2023-04-15T07:46:22;7.70;99.90
5848;DHT22;8756;49.29324300;8.70599800;2023-04-15T07:48:49;7.70;99.90
5848;DHT22;8756;49.29324300;8.70599800;2023-04-15T07:51:15;7.80;99.90
5848;DHT22;8756;49.29324300;8.70599800;2023-04-15T07:53:42;7.90;99.90
5848;DHT22;8756;49.29324300;8.70599800;2023-04-15T07:56:08;7.90;99.90
5848;DHT22;8756;49.29324300;8.70599800;2023-04-15T07:58:34;8.00;99.90
5848;DHT22;8756;49.29324300;8.70599800;2023-04-15T08:01:00;8.10;99.90
5848;DHT22;8756;49.29324300;8.70599800;2023-04-15T08:03:26;8.10;99.90
5848;DHT22;8756;49.29324300;8.70599800;2023-04-15T08:05:52;8.20;99.90
5848;DHT22;8756;49.29324300;8.70599800;2023-04-15T08:08:18;8.20;99.90
5848;DHT22;8756;49.29324300;8.70599800;2023-04-15T08:10:44;8.20;99.90
5848;DHT22;8756;49.29324300;8.70599800;2023-04-15T08:13:09;8.30;99.90
5848;DHT22;8756;49.29324300;8.70599800;2023-04-15T08:15:36;8.30;99.90
5848;DHT22;8756;49.29324300;8.70599800;2023-04-15T08:18:02;8.40;99.90
5848;DHT22;8756;49.29324300;8.70599800;2023-04-15T08:20:28;8.50;99.90
5848;DHT22;8756;49.29324300;8.70599800;2023-04-15T08:22:54;8.60;99.90
5848;DHT22;8756;49.29324300;8.70599800;2023-04-15T08:25:20;8.70;99.90
5848;DHT22;8756;49.29324300;8.70599800;2023-04-15T08:27:46;8.80;99.90
5848;DHT22;8756;49.29324300;8.70599800;2023-04-15T08:30:12;8.80;99.90
5848;DHT22;8756;49.29324300;8.70599800;2023-04-15T08:32:38;8.90;99.90
5848;DHT22;8756;49.29324300;8.70599800;2023-04-15T08:35:04;9.00;99.90
5848;DHT22;8756;49.29324300;8.70599800;2023-04-15T08:37:30;9.10;99.90
5848;DHT22;8756;49.29324300;8.70599800;2023-04-15T08:39:56;9.10;99.90
5848;DHT22;8756;49.29324300;8.70599800;2023-04-15T08:42:30;9.20;99.90
5848;DHT22;8756;49.29324300;8.70599800;2023-04-15T08:44:59;9.30;99.90
5848;DHT22;8756;49.29324300;8.70599800;2023-04-15T08:47:29;9.50;99.90
5848;DHT22;8756;49.29324300;8.70599800;2023-04-15T08:49:58;9.60;99.90
5848;DHT22;8756;49.29324300;8.70599800;2023-04-15T08:52:25;9.60;99.90
5848;DHT22;8756;49.29324300;8.70599800;2023-04-15T08:54:55;9.70;99.90
5848;DHT22;8756;49.29324300;8.70599800;2023-04-15T08:57:25;9.90;99.90
5848;DHT22;8756;49.29324300;8.70599800;2023-04-15T08:59:54;9.90;99.90
5848;DHT22;8756;49.29324300;8.70599800;2023-04-15T09:02:20;10.00;99.90
5848;DHT22;8756;49.29324300;8.70599800;2023-04-15T09:04:48;10.10;99.90
5848;DHT22;8756;49.29324300;8.70599800;2023-04-15T09:07:14;10.20;99.90
5848;DHT22;8756;49.29324300;8.70599800;2023-04-15T09:09:39;10.30;99.90
5848;DHT22;8756;49.29324300;8.70599800;2023-04-15T09:12:10;10.30;99.90
5848;DHT22;8756;49.29324300;8.70599800;2023-04-15T09:14:36;10.40;99.90
5848;DHT22;8756;49.29324300;8.70599800;2023-04-15T09:17:04;10.40;99.90
5848;DHT22;8756;49.29324300;8.70599800;2023-04-15T09:19:30;10.50;99.90
5848;DHT22;8756;49.29324300;8.70599800;2023-04-15T09:21:58;10.50;99.90
5848;DHT22;8756;49.29324300;8.70599800;2023-04-15T09:24:25;10.60;99.90
5848;DHT22;8756;49.29324300;8.70599800;2023-04-15T09:26:59;10.60;99.90
5848;DHT22;8756;49.29324300;8.70599800;2023-04-15T09:29:25;10.70;99.90
5848;DHT22;8756;49.29324300;8.70599800;2023-04-15T09:31:51;10.80;99.90
5848;DHT22;8756;49.29324300;8.70599800;2023-04-15T09:34:18;10.90;99.90
5848;DHT22;8756;49.29324300;8.70599800;2023-04-15T09:39:15;11.00;99.90
5848;DHT22;8756;49.29324300;8.70599800;2023-04-15T09:41:40;11.00;99.90
5848;DHT22;8756;49.29324300;8.70599800;2023-04-15T09:44:24;11.00;99.90
5848;DHT22;8756;49.29324300;8.70599800;2023-04-15T09:46:50;11.10;99.90
5848;DHT22;8756;49.29324300;8.70599800;2023-04-15T09:49:16;11.10;99.90
5848;DHT22;8756;49.29324300;8.70599800;2023-04-15T09:51:42;11.20;99.90
5848;DHT22;8756;49.29324300;8.70599800;2023-04-15T09:54:08;11.20;99.90
5848;DHT22;8756;49.29324300;8.70599800;2023-04-15T09:56:35;11.20;99.90
5848;DHT22;8756;49.29324300;8.70599800;2023-04-15T09:59:08;11.20;99.90
5848;DHT22;8756;49.29324300;8.70599800;2023-04-15T10:01:34;11.30;99.90
5848;DHT22;8756;49.29324300;8.70599800;2023-04-15T10:04:04;11.30;99.90
5848;DHT22;8756;49.29324300;8.70599800;2023-04-15T10:06:31;11.40;99.90
5848;DHT22;8756;49.29324300;8.70599800;2023-04-15T10:08:57;11.50;99.90
5848;DHT22;8756;49.29324300;8.70599800;2023-04-15T10:11:25;11.50;99.90
5848;DHT22;8756;49.29324300;8.70599800;2023-04-15T10:13:53;11.50;99.90
5848;DHT22;8756;49.29324300;8.70599800;2023-04-15T10:16:20;11.60;99.90
5848;DHT22;8756;49.29324300;8.70599800;2023-04-15T10:18:49;11.60;99.90
5848;DHT22;8756;49.29324300;8.70599800;2023-04-15T10:21:20;11.60;99.90
5848;DHT22;8756;49.29324300;8.70599800;2023-04-15T10:23:48;11.60;99.90
5848;DHT22;8756;49.29324300;8.70599800;2023-04-15T10:26:15;11.70;99.90
5848;DHT22;8756;49.29324300;8.70599800;2023-04-15T10:28:45;11.70;99.90
5848;DHT22;8756;49.29324300;8.70599800;2023-04-15T10:31:14;11.80;99.90
5848;DHT22;8756;49.29324300;8.70599800;2023-04-15T10:33:42;11.80;99.90
5848;DHT22;8756;49.29324300;8.70599800;2023-04-15T10:36:09;11.90;99.90
5848;DHT22;8756;49.29324300;8.70599800;2023-04-15T10:38:43;11.90;99.90
5848;DHT22;8756;49.29324300;8.70599800;2023-04-15T10:41:21;12.00;99.90
5848;DHT22;8756;49.29324300;8.70599800;2023-04-15T10:44:02;12.10;99.90
5848;DHT22;8756;49.29324300;8.70599800;2023-04-15T10:46:40;12.20;99.90
5848;DHT22;8756;49.29324300;8.70599800;2023-04-15T10:49:11;12.30;99.90
5848;DHT22;8756;49.29324300;8.70599800;2023-04-15T10:51:39;12.40;99.90
5848;DHT22;8756;49.29324300;8.70599800;2023-04-15T10:54:29;12.40;99.90
5848;DHT22;8756;49.29324300;8.70599800;2023-04-15T11:02:00;12.50;99.90
5848;DHT22;8756;49.29324300;8.70599800;2023-04-15T11:13:01;12.60;99.90
5848;DHT22;8756;49.29324300;8.70599800;2023-04-15T11:15:45;12.70;99.90
5848;DHT22;8756;49.29324300;8.70599800;2023-04-15T11:18:16;12.70;99.90
5848;DHT22;8756;49.29324300;8.70599800;2023-04-15T11:23:40;12.70;99.90
5848;DHT22;8756;49.29324300;8.70599800;2023-04-15T11:26:09;12.70;99.90
5848;DHT22;8756;49.29324300;8.70599800;2023-04-15T11:28:38;12.80;99.90
5848;DHT22;8756;49.29324300;8.70599800;2023-04-15T11:31:10;12.80;99.90
5848;DHT22;8756;49.29324300;8.70599800;2023-04-15T11:33:46;12.80;99.90
5848;DHT22;8756;49.29324300;8.70599800;2023-04-15T11:36:24;12.80;99.90
5848;DHT22;8756;49.29324300;8.70599800;2023-04-15T11:38:53;12.90;99.90
5848;DHT22;8756;49.29324300;8.70599800;2023-04-15T11:41:22;12.90;99.90
5848;DHT22;8756;49.29324300;8.70599800;2023-04-15T11:43:49;12.90;99.90
5848;DHT22;8756;49.29324300;8.70599800;2023-04-15T11:46:15;12.90;99.90
5848;DHT22;8756;49.29324300;8.70599800;2023-04-15T11:48:43;12.90;99.90
5848;DHT22;8756;49.29324300;8.70599800;2023-04-15T11:51:11;12.90;99.90
5848;DHT22;8756;49.29324300;8.70599800;2023-04-15T11:53:44;12.90;99.90
5848;DHT22;8756;49.29324300;8.70599800;2023-04-15T11:56:25;13.00;99.90
5848;DHT22;8756;49.29324300;8.70599800;2023-04-15T11:58:53;12.90;99.90
5848;DHT22;8756;49.29324300;8.70599800;2023-04-15T12:01:33;12.90;99.90
5848;DHT22;8756;49.29324300;8.70599800;2023-04-15T12:04:14;12.90;99.90
5848;DHT22;8756;49.29324300;8.70599800;2023-04-15T12:06:46;12.80;99.90
5848;DHT22;8756;49.29324300;8.70599800;2023-04-15T12:09:14;12.80;99.90
5848;DHT22;8756;49.29324300;8.70599800;2023-04-15T12:11:48;12.80;99.90
5848;DHT22;8756;49.29324300;8.70599800;2023-04-15T12:14:23;12.80;99.90
5848;DHT22;8756;49.29324300;8.70599800;2023-04-15T12:16:52;12.90;99.90
5848;DHT22;8756;49.29324300;8.70599800;2023-04-15T12:19:39;12.90;99.90
5848;DHT22;8756;49.29324300;8.70599800;2023-04-15T12:22:11;12.90;99.90
5848;DHT22;8756;49.29324300;8.70599800;2023-04-15T12:24:37;12.90;99.90
5848;DHT22;8756;49.29324300;8.70599800;2023-04-15T12:27:05;12.90;99.90
5848;DHT22;8756;49.29324300;8.70599800;2023-04-15T12:29:33;12.90;99.90
5848;DHT22;8756;49.29324300;8.70599800;2023-04-15T12:32:08;12.80;99.90
5848;DHT22;8756;49.29324300;8.70599800;2023-04-15T12:34:45;12.80;99.90
5848;DHT22;8756;49.29324300;8.70599800;2023-04-15T12:37:15;12.70;99.90
5848;DHT22;8756;49.29324300;8.70599800;2023-04-15T12:39:42;12.70;99.90
5848;DHT22;8756;49.29324300;8.70599800;2023-04-15T12:42:09;12.60;99.90
5848;DHT22;8756;49.29324300;8.70599800;2023-04-15T12:44:36;12.60;99.90
5848;DHT22;8756;49.29324300;8.70599800;2023-04-15T12:47:03;12.60;99.90
5848;DHT22;8756;49.29324300;8.70599800;2023-04-15T12:49:30;12.50;99.90
5848;DHT22;8756;49.29324300;8.70599800;2023-04-15T12:51:58;12.50;99.90
5848;DHT22;8756;49.29324300;8.70599800;2023-04-15T12:54:25;12.50;99.90
5848;DHT22;8756;49.29324300;8.70599800;2023-04-15T12:56:52;12.40;99.90
5848;DHT22;8756;49.29324300;8.70599800;2023-04-15T12:59:19;12.40;99.90
5848;DHT22;8756;49.29324300;8.70599800;2023-04-15T13:01:46;12.40;99.90
5848;DHT22;8756;49.29324300;8.70599800;2023-04-15T13:04:13;12.40;99.90
5848;DHT22;8756;49.29324300;8.70599800;2023-04-15T13:06:39;12.30;99.90
5848;DHT22;8756;49.29324300;8.70599800;2023-04-15T13:09:05;12.30;99.90
5848;DHT22;8756;49.29324300;8.70599800;2023-04-15T13:11:32;12.30;99.90
5848;DHT22;8756;49.29324300;8.70599800;2023-04-15T13:14:02;12.20;99.90
5848;DHT22;8756;49.29324300;8.70599800;2023-04-15T13:16:29;12.20;99.90
5848;DHT22;8756;49.29324300;8.70599800;2023-04-15T13:18:57;12.20;99.90
5848;DHT22;8756;49.29324300;8.70599800;2023-04-15T13:21:23;12.20;99.90
5848;DHT22;8756;49.29324300;8.70599800;2023-04-15T13:23:49;12.10;99.90
5848;DHT22;8756;49.29324300;8.70599800;2023-04-15T13:26:16;12.10;99.90
5848;DHT22;8756;49.29324300;8.70599800;2023-04-15T13:28:42;12.10;99.90
5848;DHT22;8756;49.29324300;8.70599800;2023-04-15T13:31:08;12.10;99.90
5848;DHT22;8756;49.29324300;8.70599800;2023-04-15T13:33:33;12.20;99.90
5848;DHT22;8756;49.29324300;8.70599800;2023-04-15T13:35:59;12.10;99.90
5848;DHT22;8756;49.29324300;8.70599800;2023-04-15T13:38:25;12.20;99.90
5848;DHT22;8756;49.29324300;8.70599800;2023-04-15T13:40:51;12.10;99.90
5848;DHT22;8756;49.29324300;8.70599800;2023-04-15T13:43:17;12.20;99.90
5848;DHT22;8756;49.29324300;8.70599800;2023-04-15T13:45:43;12.10;99.90
5848;DHT22;8756;49.29324300;8.70599800;2023-04-15T13:48:09;12.10;99.90
5848;DHT22;8756;49.29324300;8.70599800;2023-04-15T13:50:34;12.10;99.90
5848;DHT22;8756;49.29324300;8.70599800;2023-04-15T13:53:00;12.20;99.90
5848;DHT22;8756;49.29324300;8.70599800;2023-04-15T13:55:26;12.20;99.90
5848;DHT22;8756;49.29324300;8.70599800;2023-04-15T13:57:52;12.20;99.90
5848;DHT22;8756;49.29324300;8.70599800;2023-04-15T14:00:18;12.20;99.90
5848;DHT22;8756;49.29324300;8.70599800;2023-04-15T14:02:44;12.20;99.90
5848;DHT22;8756;49.29324300;8.70599800;2023-04-15T14:05:10;12.20;99.90
5848;DHT22;8756;49.29324300;8.70599800;2023-04-15T14:07:36;12.20;99.90
5848;DHT22;8756;49.29324300;8.70599800;2023-04-15T14:10:02;12.20;99.90
5848;DHT22;8756;49.29324300;8.70599800;2023-04-15T14:12:28;12.20;99.90